skip to main content

Salvage Dealers List

Click on any column heading to sort by that column or use the search field below to enter search terms.

Salvage Dealer List

Click on a Business Name for more detailed information about that dealer.

Business NamePhonePhysical AddressCityZipDealerIDLicense NumberExpires
ADWAJ IMPORT EXPORT(832) 620-633811845 ORMANDY STHOUSTON77035418601012418602016-06-06 00:00:00
ADWAJ IMPORT EXPORT(832) 620-633811845 ORMANDY STHOUSTON77035418601016418602017-03-04 00:00:00
AERO AUTO SALES(817) 808-84401930 MICHIGAN AVEDALLAS75216433250572433252016-10-14 00:00:00
AERO AUTO SALES(817) 808-84401930 MICHIGAN AVEDALLAS75216433250576433252016-10-14 00:00:00
AEROBILT MANUFACTURING COMPANY(972) 997-5733834 HERITAGE PARKWAY SALLEN75002541620436541622016-05-09 00:00:00
AEROMARINE ENTERPRISE(832) 279-142115827 BELLAIRE BOULEVARDHOUSTON77083358351016358352017-02-01 00:00:00
AEROPLACE SERVICES INCORPORATED(469) 964-187515 FIELDER RDDENISON75020526470912526472016-09-04 00:00:00
AEROPLACE SERVICES INCORPORATED(469) 964-187515 FIELDER RDDENISON75020526470916526472016-11-09 00:00:00
AFFORDABLE AUTO REPAIR(940) 458-198711721 MARION RDSANGER76266479290616479292016-09-19 00:00:00
AFFORDABLE AUTOS(281) 615-501724803 BAYWICK DRIVESPRING77389544171012544172016-06-06 00:00:00
AFFORDABLE AUTOS(281) 615-501724803 BAYWICK DRIVESPRING77389544171016544172016-06-06 00:00:00
AFFORDABLE CARS AND SERVICES(832) 630-25705710 JAMES PLACEHOUSTON77085534221012534222017-01-17 00:00:00
AFFORDABLE SALES(281) 987-03005204 NORTHINGTONHOUSTON77039308371016308372016-07-01 00:00:00
AFFORDABLES PLUS AUTO SALES(832) 267-34501310 HANCOCKPASADENA77502472390572472392016-05-17 00:00:00
AFFORDABLES PLUS AUTO SALES(832) 267-34501310 HANCOCKPASADENA77502472390576472392016-05-20 00:00:00
AFRICAN GIFT STORE(757) 342-89272801 WALNUT BEND LN #55HOUSTON77042443101012443102016-08-09 00:00:00
AFRICANMIRROR WORLD WIDE(214) 587-52406805 SOUTHGATE DR.SACHSE75048569270576569272016-06-24 00:00:00
AG AUTO SALES(713) 870-0875111 BLUE BELLHOUSTON77037458471012458472016-10-27 00:00:00
AG CARS(281) 435-108210211 ANTELOPE ALLEYMISSOURI CITY77459551150794551152016-09-23 00:00:00
AG MOTORS(713) 884-087217930 SUNSHINE TRACE LANERICHMOND77407480440795480442016-09-20 00:00:00
AG MOTORS(713) 884-087217930 SUNSHINE TRACE LANERICHMOND77407480440796480442016-09-20 00:00:00
AG MOTORS(956) 237-0116410 E SAUNDERS STLAREDO78041489392406489392017-02-15 00:00:00
AG PERFORMANCE(832) 483-85294301 DE MILO DRHOUSTON77092568191016568192016-06-04 00:00:00
AGAPE LOVE(713) 683-10402008 WIRT RD, STE DHOUSTON77055354811012354812017-03-29 00:00:00
AGBIMS MOTORS(832) 310-493210919 FONDREN #3122HOUSTON77096573051016573052016-08-13 00:00:00
AGBONS MOTOR(281) 717-42111230 N MASON RD STE 650KATYU77449575911012575912016-11-12 00:00:00
AGI AGI GLOBAL AND GEOPOLITICAL(713) 252-36125151 RICHMOND #219HOUSTON77056576121016576122016-09-30 00:00:00
AGOSTUS MOTOR GROUP LLC(832) 230-44547110 ROMONA BLVD STE 2HOUSTON77086552751012552752017-01-26 00:00:00
AGOSTUS MOTOR GROUP LLC(832) 230-44547110 ROMONA BLVD STE 2HOUSTON77086552751016552752017-01-26 00:00:00
AGREDA AUTO SALES(817) 521-49672111 EAST MAIN ST.GRAND PRAIRIE75050585480572585482017-03-08 00:00:00
AGREDA AUTO SALES(817) 521-49672111 EAST MAIN ST.GRAND PRAIRIE75050585480576585482017-03-08 00:00:00
AGUILAR AUTO SALE(409) 457-467113019 TELEVISTAHOUSTON77037507651012507652016-11-09 00:00:00
AGUILAR AUTO SALE(409) 457-467113019 TELEVISTAHOUSTON77037507651016507652016-11-09 00:00:00
AGUILAR AUTO SALES(214) 669-10472424 PEBBLEBROOKIRVING75060520300576520302016-06-03 00:00:00
AGUILAR AUTOSALES(915) 412-233713140 GUITAR DRSAN ELIZARIO79849506360712506362016-12-04 00:00:00
AGUILAR BROS(956) 687-89306824 S MC COLL RDMC ALLEN78503310631082310632016-09-05 00:00:00
AGUILAR BROS(956) 687-89306824 S MC COLL RDMC ALLEN78503310631086310632016-09-05 00:00:00
AGUILAR TRUCK SALES(281) 330-58707926 LOG HOLLOW DRHOUSTON77040569181016569182016-06-18 00:00:00
AGUILARS AUTO SALES(956) 968-43702800 NORTH WESTGATEWESLACO78596515521082515522017-02-13 00:00:00
AGUILARS AUTO SALES(956) 968-43702800 NORTH WESTGATEWESLACO78596515521086515522017-03-21 00:00:00
AGUIRRE AUTO SALES(832) 620-65576001 MAPLE STHOUSTON77074559361012559362017-02-24 00:00:00
AGUIRRES AUTO SALES LLC(956) 843-89912105 E HIGHWAY 281HIDALGO78557516601086516602017-04-03 00:00:00
AHY ENTERPRISES LLC(832) 538-16267006 BELLFORT STHOUSTON77087567931012567932016-07-09 00:00:00
AIDEL AUTO GROUP(832) 416-49675909 RANCHESTER #1307HOUSTON77036576551012576552016-11-03 00:00:00
AILEEN IMPORTS(832) 526-8483414 BUSH STHOUSTON7706096941012096942016-11-12 00:00:00
AILEEN IMPORTS(832) 526-8483414 BUSH STHOUSTON7706096941016096942017-01-31 00:00:00
AIRLINE MOTORCYCLE(713) 699-99147000 AIRLINE DRHOUSTON7707613821016013822016-07-01 00:00:00
AIRLINE USED AUTO PARTS/AIRLINE IMPORTS(281) 448-200010616 AIRLINE DRHOUSTON770372411012002412017-04-11 00:00:00
AIRLINE USED AUTO PARTS/AIRLINE IMPORTS(281) 448-200010616 AIRLINE DRHOUSTON770372411015002412017-04-11 00:00:00
AIRLINE USED AUTO PARTS/AIRLINE IMPORTS(281) 448-200010616 AIRLINE DRHOUSTON770372411016002412017-04-11 00:00:00

Copyright © 2016 Texas Department of Motor Vehicles. All rights reserved. - 4000 Jackson Ave, Austin, TX 78731